Time;durP1;ratioP1;P1;durP2;ratioP2;P2;SDS_P1;SDS_P2;PMS_P1;PMS_P2;Temp;Humidity;BMP_temperature;BMP_pressure;BME280_temperature;BME280_humidity;BME280_pressure;Samples;Min_cycle;Max_cycle;Signal;HPM_P1;HPM_P2
2022/01/09 00:00:59;;;;;;;4.50;1.25;;;;;;;18.74;47.28;98680.84;5035762;28;20029;-64
2022/01/09 00:03:25;;;;;;;6.18;1.27;;;;;;;18.71;47.27;98683.84;5035777;28;20108;-64
2022/01/09 00:05:50;;;;;;;5.77;1.30;;;;;;;18.68;47.57;98692.13;5034626;28;20116;-63
2022/01/09 00:08:15;;;;;;;6.95;1.42;;;;;;;18.66;47.55;98710.75;5035890;28;20310;-65
2022/01/09 00:10:46;;;;;;;4.50;1.40;;;;;;;18.64;47.65;98733.03;5035469;28;20029;-64
2022/01/09 00:13:12;;;;;;;6.28;1.30;;;;;;;18.62;47.15;98732.41;5035035;28;20638;-63
2022/01/09 00:15:37;;;;;;;5.53;1.35;;;;;;;18.60;47.87;98752.88;5035057;28;20029;-64
2022/01/09 00:18:03;;;;;;;5.57;1.33;;;;;;;18.56;47.97;98764.75;5035387;28;20036;-64
2022/01/09 00:20:28;;;;;;;4.35;1.20;;;;;;;18.57;47.76;98787.53;5034596;28;20116;-64
2022/01/09 00:22:54;;;;;;;6.20;1.10;;;;;;;18.55;47.72;98794.78;5035229;28;20060;-65
2022/01/09 00:25:21;;;;;;;7.03;1.73;;;;;;;18.53;47.87;98805.50;5034325;28;20120;-64
2022/01/09 00:27:48;;;;;;;7.00;1.52;;;;;;;18.51;47.89;98817.25;5034203;28;20123;-66
2022/01/09 00:30:19;;;;;;;5.95;1.20;;;;;;;18.51;48.00;98817.25;5035205;28;20068;-64
2022/01/09 00:32:45;;;;;;;4.97;1.30;;;;;;;18.49;48.02;98823.50;5034159;28;20037;-64
2022/01/09 00:35:14;;;;;;;5.88;1.30;;;;;;;18.47;48.40;98836.06;5035004;28;20125;-63
2022/01/09 00:37:40;;;;;;;6.32;1.50;;;;;;;18.45;48.15;98843.31;5034899;28;20021;-64
2022/01/09 00:40:07;;;;;;;7.47;1.42;;;;;;;18.43;48.08;98858.47;5034534;28;20087;-64
2022/01/09 00:42:41;;;;;;;5.28;1.25;;;;;;;18.43;47.82;98870.84;5034710;28;20108;-65
2022/01/09 00:45:07;;;;;;;8.35;1.42;;;;;;;18.41;47.93;98864.94;5035070;28;20053;-64
2022/01/09 00:47:32;;;;;;;5.50;1.25;;;;;;;18.39;47.73;98870.41;5033898;28;20049;-64
2022/01/09 00:49:59;;;;;;;9.05;1.67;;;;;;;18.38;47.74;98878.47;5035206;28;20089;-64
2022/01/09 00:52:24;;;;;;;6.72;1.50;;;;;;;18.36;48.02;98876.00;5035001;28;20081;-65
2022/01/09 00:54:49;;;;;;;6.28;1.50;;;;;;;18.34;47.74;98899.09;5033963;28;20100;-64
2022/01/09 00:57:15;;;;;;;9.67;1.77;;;;;;;18.30;48.04;98885.44;5034679;28;20179;-64
2022/01/09 00:59:42;;;;;;;9.57;1.90;;;;;;;18.31;47.85;98899.44;5034367;28;20320;-64
2022/01/09 01:02:08;;;;;;;8.98;1.45;;;;;;;18.29;47.87;98914.59;5033761;28;20448;-64
2022/01/09 01:04:38;;;;;;;10.35;1.83;;;;;;;18.27;47.88;98911.31;5034357;28;20061;-65
2022/01/09 01:07:04;;;;;;;8.57;2.03;;;;;;;18.26;48.19;98925.50;5034580;28;20029;-64
2022/01/09 01:09:31;;;;;;;9.25;1.75;;;;;;;18.22;47.61;98925.03;5033723;28;20120;-64
2022/01/09 01:12:03;;;;;;;8.38;1.77;;;;;;;18.24;47.74;98930.13;5034554;28;20049;-64
2022/01/09 01:14:29;;;;;;;8.57;1.67;;;;;;;18.21;47.90;98935.75;5034079;28;20049;-64
2022/01/09 01:16:55;;;;;;;8.20;2.00;;;;;;;18.20;47.96;98934.09;5033596;28;20084;-65
2022/01/09 01:19:23;;;;;;;9.80;2.13;;;;;;;18.18;48.13;98951.91;5034233;28;20472;-64
2022/01/09 01:21:49;;;;;;;11.57;2.25;;;;;;;18.16;47.94;98959.97;5033751;28;20646;-63
2022/01/09 01:24:15;;;;;;;9.55;2.10;;;;;;;18.15;47.76;98961.00;5033923;28;20478;-64
2022/01/09 01:26:40;;;;;;;9.60;1.90;;;;;;;18.14;47.97;98969.88;5033663;28;20041;-64
2022/01/09 01:29:05;;;;;;;10.68;2.00;;;;;;;18.12;47.83;98975.31;5033293;28;20049;-64
2022/01/09 01:31:31;;;;;;;7.75;2.20;;;;;;;18.10;47.76;98973.84;5033765;28;20072;-63
2022/01/09 01:33:56;;;;;;;7.10;1.88;;;;;;;18.09;47.59;98980.13;5034055;28;20393;-65
2022/01/09 01:36:21;;;;;;;11.00;2.33;;;;;;;18.07;47.80;98987.34;5032639;28;20061;-64
2022/01/09 01:38:46;;;;;;;10.38;2.53;;;;;;;18.04;47.73;98995.59;5032333;28;20298;-64
2022/01/09 01:41:12;;;;;;;8.10;2.15;;;;;;;18.03;47.72;99002.69;5034083;28;20512;-64
2022/01/09 01:43:40;;;;;;;10.02;2.13;;;;;;;18.02;47.69;99014.22;5032839;28;20026;-63
2022/01/09 01:46:05;;;;;;;12.70;2.00;;;;;;;18.00;47.94;99018.84;5033933;28;20022;-64
2022/01/09 01:48:31;;;;;;;10.82;2.28;;;;;;;17.99;47.57;99021.63;5033667;28;20487;-64
2022/01/09 01:50:56;;;;;;;11.75;2.67;;;;;;;17.97;47.36;99029.72;5033081;28;20489;-64
2022/01/09 01:53:24;;;;;;;7.65;2.42;;;;;;;17.95;47.55;99035.16;5033834;28;20076;-64
2022/01/09 01:55:54;;;;;;;11.18;2.55;;;;;;;17.94;47.46;99048.50;5033106;28;20405;-64
2022/01/09 01:58:20;;;;;;;11.07;2.13;;;;;;;17.91;47.84;99044.41;5032789;28;20435;-64
2022/01/09 02:00:46;;;;;;;10.25;2.25;;;;;;;17.92;47.94;99056.56;5033188;28;20458;-64
2022/01/09 02:03:12;;;;;;;10.82;2.40;;;;;;;17.91;47.85;99059.38;5033508;28;20034;-64
2022/01/09 02:05:41;;;;;;;11.35;2.30;;;;;;;17.90;47.56;99063.00;5032383;28;20415;-64
2022/01/09 02:08:06;;;;;;;12.25;2.90;;;;;;;17.89;47.61;99074.53;5033467;28;20045;-64
2022/01/09 02:10:32;;;;;;;11.68;2.42;;;;;;;17.87;47.38;99079.13;5033243;28;20029;-64
2022/01/09 02:12:58;;;;;;;7.60;2.70;;;;;;;17.86;47.36;99085.38;5032475;28;20527;-64
2022/01/09 02:15:37;;;;;;;9.02;2.45;;;;;;;17.86;47.55;99093.28;5033503;28;20025;-65
2022/01/09 02:18:08;;;;;;;11.70;2.83;;;;;;;17.83;47.18;99101.50;5033379;28;20026;-64
2022/01/09 02:20:36;;;;;;;12.85;3.17;;;;;;;17.83;47.06;99104.16;5032991;28;20044;-64
2022/01/09 02:23:01;;;;;;;11.35;2.63;;;;;;;17.82;47.05;99107.78;5033140;28;20033;-63
2022/01/09 02:25:27;;;;;;;9.60;2.55;;;;;;;17.86;47.05;99114.34;5032522;28;20394;-64
2022/01/09 02:27:53;;;;;;;12.45;3.10;;;;;;;17.88;47.00;99112.41;5032564;28;20111;-64
2022/01/09 02:30:18;;;;;;;8.52;2.63;;;;;;;17.91;46.78;99122.63;5033154;28;20041;-64
2022/01/09 02:32:44;;;;;;;13.07;2.67;;;;;;;17.93;46.82;99118.03;5032044;28;20053;-65
2022/01/09 02:35:09;;;;;;;12.50;2.90;;;;;;;17.95;46.82;99126.59;5032938;28;20365;-64
2022/01/09 02:37:34;;;;;;;17.23;2.97;;;;;;;17.96;46.49;99130.88;5032488;28;20330;-64
2022/01/09 02:40:00;;;;;;;13.02;3.00;;;;;;;17.98;46.38;99136.81;5032043;28;20029;-64
2022/01/09 02:42:28;;;;;;;10.90;3.47;;;;;;;17.99;46.34;99149.00;5033039;28;20041;-64
2022/01/09 02:44:58;;;;;;;11.18;2.95;;;;;;;18.00;46.25;99148.00;5032713;28;20021;-65
2022/01/09 02:47:30;;;;;;;10.07;2.58;;;;;;;18.02;46.02;99161.81;5031370;28;20025;-64
2022/01/09 02:50:02;;;;;;;11.30;2.45;;;;;;;18.02;45.99;99156.56;5032828;28;20029;-64
2022/01/09 02:52:35;;;;;;;12.23;3.05;;;;;;;18.02;46.18;99155.75;5032776;28;20408;-64
2022/01/09 02:55:14;;;;;;;9.82;2.72;;;;;;;18.03;45.76;99175.84;5032116;28;20030;-63
2022/01/09 02:57:51;;;;;;;9.02;2.58;;;;;;;18.03;46.13;99186.41;5032484;28;20451;-64
2022/01/09 03:00:22;;;;;;;13.88;3.00;;;;;;;18.01;45.74;99183.06;5032864;28;20021;-64
2022/01/09 03:02:50;;;;;;;10.13;3.08;;;;;;;18.02;45.90;99196.09;5032396;28;20385;-64
2022/01/09 03:05:19;;;;;;;12.25;3.17;;;;;;;18.02;45.92;99197.91;5032892;28;20045;-64
2022/01/09 03:07:45;;;;;;;11.27;2.80;;;;;;;18.01;45.59;99210.28;5031581;28;20378;-64
2022/01/09 03:10:11;;;;;;;10.38;2.63;;;;;;;18.00;45.75;99216.53;5032669;28;20449;-64
2022/01/09 03:12:37;;;;;;;9.70;2.40;;;;;;;17.99;45.91;99228.06;5032261;28;20046;-65
2022/01/09 03:15:04;;;;;;;14.55;4.03;;;;;;;17.99;45.55;99222.81;5031831;28;20109;-64
2022/01/09 03:17:29;;;;;;;12.73;3.45;;;;;;;17.99;45.70;99230.72;5032204;28;20025;-63
2022/01/09 03:19:55;;;;;;;11.02;2.30;;;;;;;17.99;45.47;99235.13;5032627;28;20033;-64
2022/01/09 03:22:20;;;;;;;12.38;2.58;;;;;;;18.00;45.67;99247.34;5032062;28;20489;-64
2022/01/09 03:24:45;;;;;;;10.43;3.00;;;;;;;18.01;45.74;99246.34;5032379;28;20470;-63
2022/01/09 03:27:11;;;;;;;11.00;2.92;;;;;;;18.03;45.37;99254.94;5032185;28;20049;-64
2022/01/09 03:29:38;;;;;;;11.20;2.67;;;;;;;18.02;45.27;99264.63;5031617;28;20104;-64
2022/01/09 03:32:04;;;;;;;10.07;2.65;;;;;;;18.01;45.21;99262.16;5032365;28;20017;-64
2022/01/09 03:34:29;;;;;;;13.35;2.63;;;;;;;18.03;45.11;99268.09;5031938;28;20025;-63
2022/01/09 03:36:58;;;;;;;7.10;2.10;;;;;;;18.04;44.60;99282.91;5031532;28;20037;-64
2022/01/09 03:39:23;;;;;;;10.70;2.38;;;;;;;18.02;44.85;99283.06;5032398;28;20283;-64
2022/01/09 03:41:48;;;;;;;10.77;2.23;;;;;;;18.02;44.40;99287.53;5032065;28;20803;-64
2022/01/09 03:44:17;;;;;;;10.38;2.28;;;;;;;18.02;44.69;99298.91;5031577;28;20270;-64
2022/01/09 03:46:42;;;;;;;10.90;2.17;;;;;;;18.02;45.00;99306.81;5032007;28;20025;-64
2022/01/09 03:49:07;;;;;;;11.83;2.73;;;;;;;18.02;45.00;99313.91;5032379;28;20026;-64
2022/01/09 03:51:36;;;;;;;11.07;2.43;;;;;;;17.98;44.71;99313.41;5031346;28;20281;-65
2022/01/09 03:54:03;;;;;;;10.18;2.15;;;;;;;18.00;44.77;99315.88;5032359;28;20298;-65
2022/01/09 03:56:28;;;;;;;9.98;2.78;;;;;;;18.00;44.93;99310.59;5032178;28;20109;-64
2022/01/09 03:58:53;;;;;;;9.55;2.88;;;;;;;17.99;44.69;99322.97;5032433;28;20029;-65
2022/01/09 04:01:19;;;;;;;11.15;3.47;;;;;;;17.98;44.91;99329.22;5035639;28;20033;-64
2022/01/09 04:03:44;;;;;;;8.55;2.22;;;;;;;17.97;44.42;99332.00;5034879;28;20029;-64
2022/01/09 04:06:09;;;;;;;8.52;2.40;;;;;;;17.97;44.72;99342.56;5035941;28;20035;-64
2022/01/09 04:08:35;;;;;;;7.83;1.93;;;;;;;17.95;44.89;99359.34;5035792;28;20025;-64
2022/01/09 04:11:02;;;;;;;10.30;2.50;;;;;;;17.97;44.86;99353.91;5035389;28;20033;-64
2022/01/09 04:13:28;;;;;;;9.23;2.72;;;;;;;17.97;44.75;99368.91;5035652;28;20017;-64
2022/01/09 04:15:53;;;;;;;12.18;2.78;;;;;;;17.99;44.80;99370.41;5035018;28;20461;-64
2022/01/09 04:18:23;;;;;;;10.60;2.25;;;;;;;17.99;44.48;99380.97;5034836;28;20109;-64
2022/01/09 04:20:50;;;;;;;11.77;2.55;;;;;;;18.00;44.76;99390.50;5035240;28;20060;-64
2022/01/09 04:23:16;;;;;;;10.27;2.78;;;;;;;18.00;44.69;99387.88;5035457;28;20033;-63
2022/01/09 04:25:42;;;;;;;7.65;2.17;;;;;;;18.01;44.72;99392.16;5034150;28;20517;-64
2022/01/09 04:28:08;;;;;;;11.95;2.42;;;;;;;18.00;44.55;99398.41;5035165;28;20152;-64
2022/01/09 04:30:34;;;;;;;11.43;3.00;;;;;;;17.99;44.13;99399.41;5034801;28;20052;-64
2022/01/09 04:32:59;;;;;;;10.98;2.90;;;;;;;18.00;44.28;99406.31;5034636;28;20445;-64
2022/01/09 04:35:24;;;;;;;12.23;2.40;;;;;;;18.02;44.90;99420.16;5035344;28;20034;-66
2022/01/09 04:37:50;;;;;;;11.80;2.50;;;;;;;18.03;44.84;99418.38;5035242;28;20283;-65
2022/01/09 04:40:17;;;;;;;8.88;1.90;;;;;;;18.03;44.70;99421.81;5034948;28;20079;-65
2022/01/09 04:42:50;;;;;;;8.00;2.00;;;;;;;18.06;44.88;99436.50;5035004;28;20064;-63
2022/01/09 04:45:17;;;;;;;8.70;2.40;;;;;;;18.07;44.96;99438.97;5035675;28;20108;-64
2022/01/09 04:47:47;;;;;;;9.88;2.17;;;;;;;18.07;44.82;99444.25;5033961;28;20029;-64
2022/01/09 04:50:17;;;;;;;11.88;2.85;;;;;;;18.08;44.34;99445.06;5035025;28;20026;-64
2022/01/09 04:52:43;;;;;;;9.93;2.47;;;;;;;18.07;44.41;99457.44;5034434;28;20474;-65
2022/01/09 04:55:09;;;;;;;10.43;2.38;;;;;;;18.08;44.25;99464.34;5034004;28;20034;-64
2022/01/09 04:57:34;;;;;;;11.02;2.25;;;;;;;18.06;44.50;99466.31;5034234;28;20021;-64
2022/01/09 05:00:00;;;;;;;9.50;2.35;;;;;;;18.06;44.33;99471.59;5034111;28;20037;-65
2022/01/09 05:02:25;;;;;;;9.00;2.10;;;;;;;18.06;44.17;99482.13;5034895;28;20033;-64
2022/01/09 05:04:50;;;;;;;8.90;2.58;;;;;;;18.06;44.23;99487.41;5035220;28;20488;-64
2022/01/09 05:07:16;;;;;;;9.80;2.55;;;;;;;18.05;44.49;99498.94;5034169;28;20043;-64
2022/01/09 05:09:41;;;;;;;10.55;2.58;;;;;;;18.07;44.27;99504.03;5033827;28;20126;-65
2022/01/09 05:12:07;;;;;;;8.60;1.90;;;;;;;18.08;44.13;99510.97;5034064;28;20167;-64
2022/01/09 05:14:35;;;;;;;9.20;1.95;;;;;;;18.09;44.28;99515.28;5033661;28;20022;-64
2022/01/09 05:17:00;;;;;;;13.00;2.20;;;;;;;18.09;44.29;99523.19;5034429;28;20405;-64
2022/01/09 05:19:31;;;;;;;8.82;1.85;;;;;;;18.09;44.43;99539.00;5034425;28;20025;-64
2022/01/09 05:21:57;;;;;;;8.98;2.58;;;;;;;18.08;43.87;99532.06;5033988;28;20033;-64
2022/01/09 05:24:23;;;;;;;9.45;2.38;;;;;;;18.09;44.24;99552.19;5034631;28;20116;-64
2022/01/09 05:26:54;;;;;;;10.02;2.00;;;;;;;18.09;44.37;99554.84;5033945;28;20084;-64
2022/01/09 05:29:20;;;;;;;8.27;2.00;;;;;;;18.08;44.05;99558.44;5034272;28;20033;-64
2022/01/09 05:31:48;;;;;;;8.70;1.95;;;;;;;18.08;44.22;99555.81;5035638;28;20033;-64
2022/01/09 05:34:13;;;;;;;9.30;2.08;;;;;;;18.07;44.36;99560.25;5039640;28;20021;-65
2022/01/09 05:36:38;;;;;;;7.75;2.00;;;;;;;18.06;44.39;99555.97;5038978;28;20120;-63
2022/01/09 05:39:04;;;;;;;12.17;2.13;;;;;;;18.06;44.63;99563.88;5040267;28;20034;-64
2022/01/09 05:41:29;;;;;;;8.68;2.03;;;;;;;18.07;45.10;99562.03;5037307;28;20266;-64
2022/01/09 05:43:55;;;;;;;13.35;2.88;;;;;;;18.08;45.22;99571.63;5041409;28;20040;-64
2022/01/09 05:46:20;;;;;;;12.38;2.30;;;;;;;18.09;44.86;99576.75;5042155;28;20029;-64
2022/01/09 05:48:45;;;;;;;9.65;2.22;;;;;;;18.10;45.06;99582.81;5039958;28;20461;-64
2022/01/09 05:51:11;;;;;;;11.00;1.92;;;;;;;18.10;45.11;99578.41;5034102;28;20029;-65
2022/01/09 05:53:36;;;;;;;10.10;2.00;;;;;;;18.11;45.17;99581.84;5033676;28;20468;-65
2022/01/09 05:56:04;;;;;;;12.20;2.10;;;;;;;18.11;44.65;99587.13;5033716;28;20131;-64
2022/01/09 05:58:30;;;;;;;10.32;2.20;;;;;;;18.10;44.65;99586.31;5032931;28;20026;-64
2022/01/09 06:00:55;;;;;;;7.10;2.13;;;;;;;18.10;44.49;99596.88;5033765;28;20021;-64
2022/01/09 06:03:21;;;;;;;7.93;1.80;;;;;;;18.09;44.65;99594.38;5032584;28;20456;-64
2022/01/09 06:05:46;;;;;;;10.65;2.03;;;;;;;18.08;44.68;99603.25;5034146;28;20582;-64
2022/01/09 06:08:11;;;;;;;10.60;2.40;;;;;;;18.10;45.02;99596.00;5033538;28;20025;-64
2022/01/09 06:10:37;;;;;;;11.65;2.25;;;;;;;18.11;45.42;99605.59;5032324;28;20034;-64
2022/01/09 06:13:02;;;;;;;11.43;2.10;;;;;;;18.13;45.87;99606.25;5033558;28;20027;-64
2022/01/09 06:15:27;;;;;;;9.07;2.10;;;;;;;18.15;46.15;99612.22;5033273;28;20738;-64
2022/01/09 06:17:52;;;;;;;8.97;1.90;;;;;;;18.17;46.49;99610.25;5032216;28;20037;-64
2022/01/09 06:20:18;;;;;;;9.33;1.97;;;;;;;18.18;46.59;99614.53;5033407;28;20273;-64
2022/01/09 06:22:44;;;;;;;7.60;2.27;;;;;;;18.21;46.26;99610.75;5031968;28;20762;-64
2022/01/09 06:25:11;;;;;;;9.68;2.03;;;;;;;18.24;46.80;99621.81;5032515;28;20313;-64
2022/01/09 06:27:37;;;;;;;7.68;2.03;;;;;;;18.24;46.65;99619.19;5032647;28;20501;-64
2022/01/09 06:30:04;;;;;;;8.85;1.92;;;;;;;18.29;46.89;99629.25;5033146;28;20030;-64
2022/01/09 06:32:31;;;;;;;9.93;2.42;;;;;;;18.30;46.70;99634.38;5032008;28;20026;-63
2022/01/09 06:34:56;;;;;;;8.93;2.28;;;;;;;18.32;46.46;99636.88;5033013;28;20072;-64
2022/01/09 06:37:21;;;;;;;10.70;2.20;;;;;;;18.32;46.83;99628.97;5032752;28;20065;-64
2022/01/09 06:39:46;;;;;;;9.25;2.30;;;;;;;18.36;46.62;99642.66;5031824;28;20294;-64
2022/01/09 06:42:11;;;;;;;11.87;2.50;;;;;;;18.36;46.48;99645.28;5033068;28;20395;-64
2022/01/09 06:44:37;;;;;;;10.43;2.50;;;;;;;18.39;46.65;99655.53;5032634;28;20429;-63
2022/01/09 06:47:03;;;;;;;8.57;2.00;;;;;;;18.39;46.82;99647.63;5032095;28;20274;-64
2022/01/09 06:49:28;;;;;;;12.68;1.90;;;;;;;18.42;46.91;99655.22;5032826;28;20033;-63
2022/01/09 06:51:56;;;;;;;9.68;2.42;;;;;;;18.43;46.59;99654.25;5032501;28;20108;-64
2022/01/09 06:54:22;;;;;;;8.57;2.10;;;;;;;18.46;46.48;99659.22;5032138;28;20060;-63
2022/01/09 06:56:47;;;;;;;8.77;1.88;;;;;;;18.46;46.53;99660.03;5032468;28;20543;-64
2022/01/09 06:59:12;;;;;;;8.35;1.85;;;;;;;18.47;46.78;99664.34;5032829;28;20032;-63
2022/01/09 07:01:38;;;;;;;10.25;1.95;;;;;;;18.48;46.45;99675.72;5031854;28;20028;-64
2022/01/09 07:04:03;;;;;;;8.10;2.20;;;;;;;18.49;46.67;99683.47;5032647;28;20045;-63
2022/01/09 07:06:28;;;;;;;10.52;2.15;;;;;;;18.50;46.75;99671.13;5032614;28;20017;-63
2022/01/09 07:08:54;;;;;;;11.03;2.37;;;;;;;18.51;46.14;99693.88;5031677;28;20381;-64
2022/01/09 07:11:19;;;;;;;10.35;1.85;;;;;;;18.51;46.61;99687.78;5032760;28;20294;-64
2022/01/09 07:13:44;;;;;;;9.35;2.08;;;;;;;18.52;44.95;99699.97;5031548;28;20029;-64
2022/01/09 07:16:10;;;;;;;11.32;2.00;;;;;;;18.51;46.14;99696.50;5032370;28;20485;-64
2022/01/09 07:18:37;;;;;;;6.87;2.00;;;;;;;18.54;46.51;99712.03;5032060;28;20034;-63
2022/01/09 07:21:03;;;;;;;9.25;2.28;;;;;;;18.56;46.17;99711.88;5031675;28;20282;-63
2022/01/09 07:23:32;;;;;;;9.40;1.88;;;;;;;18.58;46.57;99723.09;5032586;28;20028;-64
2022/01/09 07:25:57;;;;;;;7.95;1.95;;;;;;;18.58;45.17;99734.50;5032722;28;20120;-63
2022/01/09 07:28:22;;;;;;;11.23;2.17;;;;;;;18.58;46.56;99731.03;5031578;28;20533;-62
2022/01/09 07:30:48;;;;;;;8.10;1.83;;;;;;;18.60;46.31;99731.72;5032304;28;20029;-63
2022/01/09 07:33:13;;;;;;;10.20;2.03;;;;;;;18.62;46.55;99732.38;5032913;28;20032;-63
2022/01/09 07:35:38;;;;;;;8.05;1.73;;;;;;;18.63;46.66;99734.88;5035107;28;20496;-64
2022/01/09 07:38:06;;;;;;;8.88;1.70;;;;;;;18.65;46.52;99732.06;5036052;28;20037;-64
2022/01/09 07:40:32;;;;;;;9.15;1.90;;;;;;;18.66;46.69;99744.28;5035724;28;20041;-63
2022/01/09 07:42:57;;;;;;;7.07;2.30;;;;;;;18.68;46.47;99744.97;5035548;28;20075;-64
2022/01/09 07:45:25;;;;;;;7.82;1.70;;;;;;;18.69;46.75;99746.59;5036193;28;20484;-63
2022/01/09 07:47:52;;;;;;;6.47;1.92;;;;;;;18.71;46.92;99743.81;5036145;28;20038;-63
2022/01/09 07:50:22;;;;;;;8.43;2.28;;;;;;;18.71;46.65;99749.06;5035152;28;20045;-63
2022/01/09 07:52:47;;;;;;;7.78;1.60;;;;;;;18.72;46.68;99758.66;5035923;28;20492;-63
2022/01/09 07:55:13;;;;;;;7.10;1.65;;;;;;;18.72;46.82;99767.41;5036006;28;20041;-63
2022/01/09 07:57:38;;;;;;;10.20;2.28;;;;;;;18.73;46.42;99771.72;5034827;28;20029;-63
2022/01/09 08:00:06;;;;;;;8.27;1.75;;;;;;;18.74;46.70;99777.81;5036189;28;20028;-64
2022/01/09 08:02:31;;;;;;;8.95;1.70;;;;;;;18.74;46.65;99781.28;5035355;28;20048;-64
2022/01/09 08:05:02;;;;;;;8.07;1.77;;;;;;;18.75;46.59;99779.47;5034742;28;20029;-65
2022/01/09 08:07:27;;;;;;;7.95;1.73;;;;;;;18.76;46.72;99784.59;5035810;28;20278;-65
2022/01/09 08:09:53;;;;;;;7.60;1.83;;;;;;;18.77;46.91;99788.06;5034690;28;20390;-63
2022/01/09 08:12:18;;;;;;;7.18;1.60;;;;;;;18.78;46.74;99787.09;5035718;28;20036;-63
2022/01/09 08:14:47;;;;;;;6.32;1.67;;;;;;;18.78;46.79;99793.19;5035237;28;20028;-63
2022/01/09 08:17:13;;;;;;;8.40;1.77;;;;;;;18.79;46.61;99792.22;5034568;28;20044;-63
2022/01/09 08:19:41;;;;;;;6.85;1.73;;;;;;;18.79;46.73;99792.22;5035118;28;20017;-63
2022/01/09 08:22:07;;;;;;;9.20;2.13;;;;;;;18.80;46.70;99806.22;5035366;28;20481;-64
2022/01/09 08:24:34;;;;;;;7.40;2.03;;;;;;;18.81;46.45;99810.53;5034626;28;20037;-63
2022/01/09 08:26:59;;;;;;;10.05;1.60;;;;;;;18.82;46.91;99818.31;5035254;28;20054;-63
2022/01/09 08:29:25;;;;;;;8.77;1.75;;;;;;;18.83;46.71;99817.31;5035330;28;20373;-65
2022/01/09 08:31:51;;;;;;;6.00;1.90;;;;;;;18.82;45.81;99820.13;5034209;28;20037;-67
2022/01/09 08:34:16;;;;;;;8.30;2.05;;;;;;;18.83;46.39;99822.59;5035125;28;20163;-63
2022/01/09 08:36:42;;;;;;;7.18;1.70;;;;;;;18.84;46.87;99823.47;5034851;28;20144;-64
2022/01/09 08:39:10;;;;;;;8.05;1.63;;;;;;;18.84;46.87;99820.81;5034454;28;20021;-64
2022/01/09 08:41:35;;;;;;;7.15;1.50;;;;;;;18.87;46.68;99819.66;5034665;28;20469;-60
2022/01/09 08:44:04;;;;;;;8.52;1.70;;;;;;;18.87;46.27;99828.44;5035029;28;20045;-65
2022/01/09 08:46:30;;;;;;;7.63;1.60;;;;;;;18.87;46.67;99840.78;5032614;28;20068;-65
2022/01/09 08:48:55;;;;;;;8.25;1.63;;;;;;;18.87;46.66;99824.94;5034746;28;20026;-65
2022/01/09 08:51:21;;;;;;;6.77;2.10;;;;;;;18.87;46.83;99844.28;5034771;28;20034;-65
2022/01/09 08:53:52;;;;;;;9.15;1.50;;;;;;;18.86;46.88;99842.59;5033510;28;20655;-65
2022/01/09 08:56:19;;;;;;;8.70;2.20;;;;;;;18.87;46.49;99851.34;5034663;28;20108;-65
2022/01/09 08:58:45;;;;;;;7.15;1.58;;;;;;;18.88;46.81;99855.66;5034477;28;20091;-65
2022/01/09 09:01:10;;;;;;;7.03;1.73;;;;;;;18.88;46.81;99864.38;5033764;28;20021;-64
2022/01/09 09:03:40;;;;;;;8.57;1.70;;;;;;;18.88;46.69;99866.22;5034207;28;20037;-64
2022/01/09 09:06:10;;;;;;;8.15;1.75;;;;;;;18.88;46.77;99864.38;5034065;28;20025;-64
2022/01/09 09:08:36;;;;;;;4.82;1.40;;;;;;;18.89;46.78;99867.88;5034410;28;20045;-64
2022/01/09 09:11:05;;;;;;;5.50;1.50;;;;;;;18.88;46.86;99872.31;5034385;28;20025;-65
2022/01/09 09:13:31;;;;;;;6.32;1.55;;;;;;;18.89;46.65;99876.63;5033310;28;20060;-65
2022/01/09 09:15:56;;;;;;;9.23;1.67;;;;;;;18.90;46.64;99870.38;5034254;28;20025;-64
2022/01/09 09:18:21;;;;;;;7.97;2.03;;;;;;;18.92;46.87;99884.22;5034430;28;20278;-65
2022/01/09 09:20:46;;;;;;;7.57;1.60;;;;;;;18.92;47.12;99888.69;5033260;28;20025;-65
2022/01/09 09:23:12;;;;;;;7.60;1.70;;;;;;;18.93;46.38;99885.06;5034336;28;20291;-65
2022/01/09 09:25:37;;;;;;;8.93;2.05;;;;;;;18.91;46.66;99900.22;5033766;28;20108;-65
2022/01/09 09:28:03;;;;;;;7.88;1.75;;;;;;;18.92;46.63;99902.72;5033116;28;20133;-65
2022/01/09 09:30:28;;;;;;;9.50;1.50;;;;;;;18.92;46.89;99897.44;5033908;28;20053;-64
2022/01/09 09:32:53;;;;;;;7.05;1.63;;;;;;;18.94;46.62;99900.75;5033804;28;20018;-65
2022/01/09 09:35:19;;;;;;;9.38;1.83;;;;;;;18.94;46.78;99905.19;5033190;28;20385;-64
2022/01/09 09:37:44;;;;;;;6.88;1.35;;;;;;;18.93;46.62;99903.53;5033635;28;20120;-64
2022/01/09 09:40:13;;;;;;;9.05;1.90;;;;;;;18.95;46.50;99909.50;5033910;28;20018;-64
2022/01/09 09:42:38;;;;;;;7.90;1.60;;;;;;;18.94;46.47;99911.31;5032843;28;20103;-64
2022/01/09 09:45:09;;;;;;;10.82;1.80;;;;;;;18.95;46.56;99918.25;5033717;28;20030;-65
2022/01/09 09:47:39;;;;;;;9.43;2.28;;;;;;;18.95;46.53;99922.72;5033462;28;20072;-65
2022/01/09 09:50:08;;;;;;;11.13;2.17;;;;;;;18.96;46.77;99932.28;5033041;28;20026;-65
2022/01/09 09:52:47;;;;;;;8.60;1.88;;;;;;;18.95;46.57;99934.09;5033181;28;20090;-65
2022/01/09 09:55:14;;;;;;;7.85;1.45;;;;;;;18.95;46.51;99939.38;5033588;28;20034;-65
2022/01/09 09:57:40;;;;;;;7.38;1.88;;;;;;;18.95;46.75;99947.28;5032009;28;20473;-65
2022/01/09 10:00:15;;;;;;;7.95;1.40;;;;;;;18.96;46.84;99941.03;5033611;28;20033;-65
2022/01/09 10:02:52;;;;;;;9.60;1.90;;;;;;;18.96;46.64;99940.19;5032443;28;20176;-65
2022/01/09 10:05:20;;;;;;;9.43;2.17;;;;;;;18.95;46.53;99947.28;5033743;28;20408;-65
2022/01/09 10:07:46;;;;;;;8.80;2.10;;;;;;;18.96;46.78;99953.41;5033157;28;20358;-65
2022/01/09 10:10:17;;;;;;;8.70;1.60;;;;;;;18.96;46.73;99945.47;5032578;28;20448;-65
2022/01/09 10:12:45;;;;;;;10.32;2.00;;;;;;;18.96;46.83;99946.31;5033216;28;20051;-65
2022/01/09 10:15:13;;;;;;;8.27;1.92;;;;;;;18.96;46.66;99946.31;5033254;28;20466;-65
2022/01/09 10:17:44;;;;;;;9.25;2.20;;;;;;;18.96;46.81;99950.75;5032008;28;20400;-65
2022/01/09 10:20:27;;;;;;;5.57;1.27;;;;;;;18.96;46.66;99956.03;5033160;28;20498;-65
2022/01/09 10:22:54;;;;;;;9.63;2.47;;;;;;;18.95;46.58;99949.13;5033049;28;20156;-65
2022/01/09 10:25:39;;;;;;;8.60;1.73;;;;;;;18.96;46.63;99950.75;5032547;28;20053;-65
2022/01/09 10:28:21;;;;;;;6.32;1.98;;;;;;;18.95;46.51;99959.69;5033076;28;20085;-65
2022/01/09 10:30:51;;;;;;;7.47;1.67;;;;;;;18.91;46.88;99953.84;5032009;28;20060;-65
2022/01/09 10:33:21;;;;;;;8.85;1.58;;;;;;;18.95;46.47;99954.41;5032715;28;20120;-65
2022/01/09 10:35:49;;;;;;;6.18;1.80;;;;;;;18.95;46.92;99959.69;5032665;28;20040;-65
2022/01/09 10:38:17;;;;;;;6.72;1.50;;;;;;;18.94;46.84;99964.09;5032360;28;20033;-65
2022/01/09 10:40:45;;;;;;;6.60;1.80;;;;;;;18.96;46.78;99971.88;5032578;28;20381;-65
2022/01/09 10:43:17;;;;;;;10.88;1.85;;;;;;;18.95;46.76;99964.97;5032809;28;20462;-65
2022/01/09 10:45:46;;;;;;;7.60;1.80;;;;;;;18.95;46.75;99975.53;5031946;28;20033;-66
2022/01/09 10:48:22;;;;;;;6.90;2.22;;;;;;;18.94;46.40;99964.09;5032944;28;20021;-65
2022/01/09 10:50:49;;;;;;;7.78;1.85;;;;;;;18.95;46.35;99972.88;5032529;28;20044;-65
2022/01/09 10:53:30;;;;;;;7.78;1.70;;;;;;;18.94;46.38;99977.31;5032033;28;20032;-65
2022/01/09 10:56:15;;;;;;;10.23;2.17;;;;;;;18.95;46.84;99984.25;5032333;28;20033;-66
2022/01/09 10:58:42;;;;;;;;;;;;;;;18.94;46.50;99979.13;5032276;28;20029;-64
2022/01/09 11:01:18;;;;;;;6.53;1.75;;;;;;;18.96;46.63;99985.09;5032616;28;20000;-64
2022/01/09 11:03:51;;;;;;;11.55;2.05;;;;;;;18.95;46.71;99986.09;5032403;28;20044;-64
2022/01/09 11:06:16;;;;;;;10.52;2.22;;;;;;;18.94;46.78;99994.97;5031911;28;20036;-65
2022/01/09 11:08:42;;;;;;;8.52;1.90;;;;;;;18.94;46.48;99992.34;5033662;28;20037;-66
2022/01/09 11:11:23;;;;;;;9.30;2.05;;;;;;;18.94;46.53;99987.06;5036879;28;20025;-64
2022/01/09 11:13:50;;;;;;;9.00;1.75;;;;;;;18.95;46.39;99994.00;5035687;28;20047;-64
2022/01/09 11:16:41;;;;;;;6.57;1.63;;;;;;;18.93;46.31;99996.78;5036699;28;20381;-64
2022/01/09 11:19:17;;;;;;;9.40;1.90;;;;;;;18.92;46.32;99999.59;5036785;28;20044;-65
2022/01/09 11:22:05;;;;;;;11.40;2.13;;;;;;;18.92;46.46;100004.88;5035724;28;20459;-71
2022/01/09 11:24:58;;;;;;;7.45;1.65;;;;;;;18.89;44.99;100008.63;5036359;28;20041;-66
2022/01/09 11:27:50;;;;;;;8.02;1.88;;;;;;;18.88;46.06;100014.06;5035706;28;20389;-66
2022/01/09 11:30:21;;;;;;;9.70;3.15;;;;;;;18.87;45.20;100010.59;5036558;28;20118;-64
2022/01/09 11:33:10;;;;;;;9.98;1.60;;;;;;;18.85;45.66;100009.91;5036150;28;20094;-63